Akebono — JG5644 — position and weather

sailwx.info

Track history (hours):
 
Tides and Currents Weather Stations Pressure Air Temp Water Temp Dewpoint Dewpoint Depression Visibility Wind Speed Wind Dir Waves Ship Positions

Akebono

Last reported at 2016-Apr-30 23:34 UTC. Time now 2016-May-01 00:26 UTC.
Position N 35°27' E 139°39'.

Length 33 m; draft 4.4 m.

Type: Tug. MMSI: 431000233.

Date/timePositionNaut miles runAvg speedWind from/ knotsBaromVisibWave heightAir tempDewpointWater temp
2016-Apr-30 23:34N 35°27' E 139°39'0 0.0
2016-Apr-30 22:34N 35°27' E 139°39'0 0.0
2016-Apr-30 21:34N 35°27' E 139°39'0 0.0
2016-Apr-30 20:33N 35°27' E 139°39'0 0.0
2016-Apr-30 07:33N 35°27' E 139°39'0 0.0
2016-Apr-30 06:33N 35°27' E 139°39'0 0.0
2016-Apr-30 05:33N 35°27' E 139°39'0 0.0
2016-Apr-30 04:33N 35°27' E 139°39'1 0.6
2016-Apr-30 03:33N 35°27' E 139°40'3 3.5
2016-Apr-30 02:33N 35°28' E 139°44'1 1.2
2016-Apr-30 01:34N 35°29' E 139°45'0 0.0
2016-Apr-30 00:34N 35°29' E 139°45'2 2.1
2016-Apr-29 23:33N 35°31' E 139°45'1 1.2
2016-Apr-29 22:33N 35°31' E 139°46'0 0.4
2016-Apr-29 21:34N 35°31' E 139°46'7 6.5
2016-Apr-29 20:34N 35°27' E 139°40'0 0.0
2016-Apr-28 08:26N 35°27' E 139°39'0 0.0
2016-Apr-28 07:33N 35°27' E 139°39'1 1.4
2016-Apr-28 06:33N 35°26' E 139°41'1 1.4
2016-Apr-28 05:33N 35°27' E 139°39'0 0.0
2016-Apr-28 04:33N 35°27' E 139°39'0 0.0
2016-Apr-28 03:33N 35°27' E 139°39'0 0.0
2016-Apr-28 02:33N 35°27' E 139°39'0 0.0
2016-Apr-28 01:33N 35°27' E 139°39'0 0.0
2016-Apr-28 00:33N 35°27' E 139°39'1 1.2
2016-Apr-27 23:33N 35°27' E 139°41'2 2.2
2016-Apr-27 22:33N 35°25' E 139°43'3 3.2
2016-Apr-27 21:33N 35°27' E 139°39'0 0.0
2016-Apr-27 08:14N 35°27' E 139°39'6 9.4
2016-Apr-27 07:33N 35°29' E 139°47'0 0.3
2016-Apr-27 06:33N 35°29' E 139°47'2 1.9
2016-Apr-27 05:33N 35°28' E 139°45'4 4.4
2016-Apr-27 04:33N 35°27' E 139°39'0 0.0
2016-Apr-27 03:33N 35°27' E 139°39'0 0.0
2016-Apr-27 02:33N 35°27' E 139°39'0 0.0
2016-Apr-27 01:33N 35°27' E 139°39'0 0.0
2016-Apr-27 00:33N 35°27' E 139°39'0 0.0
2016-Apr-26 23:33N 35°27' E 139°39'0 0.2
2016-Apr-26 22:33N 35°27' E 139°40'4 3.6
2016-Apr-26 21:33N 35°26' E 139°44'4 3.7
2016-Apr-26 20:34N 35°27' E 139°40'1 0.1
2016-Apr-26 09:34N 35°27' E 139°41'0 0.1
2016-Apr-26 08:33N 35°26' E 139°41'1 1.4
2016-Apr-26 07:33N 35°27' E 139°39'1 1.0
2016-Apr-26 06:34N 35°27' E 139°41'1 1.1
2016-Apr-26 05:34N 35°28' E 139°40'1 1.3
2016-Apr-26 04:33N 35°27' E 139°39'0 0.0
2016-Apr-26 03:33N 35°27' E 139°39'0 0.1
2016-Apr-26 02:33N 35°27' E 139°39'8 7.6
2016-Apr-26 01:33N 35°29' E 139°49'8 8.3
2016-Apr-26 00:33N 35°30' E 139°59'3 3.1
2016-Apr-25 23:33N 35°31' E 140°02'1010.2
2016-Apr-25 22:33N 35°28' E 139°50'9 9.0
2016-Apr-25 21:33N 35°27' E 139°39'0 0.0
2016-Apr-25 00:22N 35°27' E 139°39'0 0.0
2016-Apr-24 23:33N 35°27' E 139°39'0 0.0
2016-Apr-24 22:33N 35°27' E 139°39'0 0.0
2016-Apr-23 23:25N 35°27' E 139°39'6 7.4
2016-Apr-23 22:34N 35°29' E 139°47'1 0.7
2016-Apr-23 21:33N 35°29' E 139°46'1 0.6
2016-Apr-23 20:33N 35°29' E 139°45'1 0.8
2016-Apr-23 19:33N 35°29' E 139°44'2 2.3
2016-Apr-23 18:34N 35°27' E 139°45'2 2.1
2016-Apr-23 17:33N 35°29' E 139°46'0 0.0
2016-Apr-23 16:33N 35°29' E 139°46'0 0.0
2016-Apr-23 15:33N 35°29' E 139°46'2 1.7
2016-Apr-23 14:33N 35°30' E 139°44'5 4.5
2016-Apr-23 13:33N 35°27' E 139°40'1 0.7
2016-Apr-23 12:33N 35°28' E 139°41'0 0.0
2016-Apr-23 11:33N 35°28' E 139°41'0 0.0
2016-Apr-23 10:33N 35°28' E 139°41'1 1.3
2016-Apr-23 09:33N 35°27' E 139°42'2 2.1
2016-Apr-23 08:34N 35°28' E 139°44'3 2.7
2016-Apr-23 07:34N 35°27' E 139°41'1 1.3
2016-Apr-23 06:34N 35°27' E 139°39'0 0.0
2016-Apr-23 05:34N 35°27' E 139°39'0 0.0
2016-Apr-23 04:34N 35°27' E 139°39'0 0.0
2016-Apr-23 03:34N 35°27' E 139°39'0 0.0
2016-Apr-23 02:34N 35°27' E 139°39'0 0.0
2016-Apr-23 01:34N 35°27' E 139°39'3 2.5
2016-Apr-23 00:34N 35°26' E 139°42'3 2.5
2016-Apr-22 23:33N 35°27' E 139°39'0 0.0
2016-Apr-22 22:33N 35°27' E 139°39'0 0.0
2016-Apr-22 21:34N 35°27' E 139°39'0 0.0
2016-Apr-22 20:33N 35°27' E 139°39'0 0.0
2016-Apr-22 05:33N 35°27' E 139°39'0 0.0
2016-Apr-22 04:33N 35°27' E 139°39'0 0.0
2016-Apr-22 03:33N 35°27' E 139°39'0 0.0
2016-Apr-22 02:33N 35°27' E 139°39'0 0.0
2016-Apr-22 01:33N 35°27' E 139°39'0 0.0
2016-Apr-22 00:33N 35°27' E 139°39'2 2.2
2016-Apr-21 23:33N 35°28' E 139°42'2 2.5
2016-Apr-21 22:34N 35°27' E 139°44'4 3.9
2016-Apr-21 21:34N 35°27' E 139°40'0 0.0
2016-Apr-21 08:18N 35°27' E 139°39'7 9.0
2016-Apr-21 07:33N 35°31' E 139°46'0 0.3
2016-Apr-21 06:33N 35°31' E 139°46'1 1.1
2016-Apr-21 05:33N 35°30' E 139°47'7 6.8
2016-Apr-21 04:34N 35°27' E 139°39'0 0.0
2016-Apr-21 03:34N 35°27' E 139°39'0 0.0
2016-Apr-21 02:33N 35°27' E 139°39'1 1.5
2016-Apr-21 01:33N 35°27' E 139°41'4 3.9
2016-Apr-21 00:33N 35°24' E 139°38'  
Track history (hours):
 
Tides and Currents Weather Stations Pressure Air Temp Water Temp Dewpoint Dewpoint Depression Visibility Wind Speed Wind Dir Waves Ship Positions

Akebono

Last reported at 2016-Apr-30 23:34 UTC. Time now 2016-May-01 00:26 UTC.
Position N 35°27' E 139°39'.

Length 33 m; draft 4.4 m.

Type: Tug. MMSI: 431000233.

Date/timePositionNaut miles runAvg speedWind from/ knotsBaromVisibWave heightAir tempDewpointWater temp
2016-Apr-30 23:34N 35°27' E 139°39'0 0.0
2016-Apr-30 22:34N 35°27' E 139°39'0 0.0
2016-Apr-30 21:34N 35°27' E 139°39'0 0.0
2016-Apr-30 20:33N 35°27' E 139°39'0 0.0
2016-Apr-30 07:33N 35°27' E 139°39'0 0.0
2016-Apr-30 06:33N 35°27' E 139°39'0 0.0
2016-Apr-30 05:33N 35°27' E 139°39'0 0.0
2016-Apr-30 04:33N 35°27' E 139°39'1 0.6
2016-Apr-30 03:33N 35°27' E 139°40'3 3.5
2016-Apr-30 02:33N 35°28' E 139°44'1 1.2
2016-Apr-30 01:34N 35°29' E 139°45'0 0.0
2016-Apr-30 00:34N 35°29' E 139°45'2 2.1
2016-Apr-29 23:33N 35°31' E 139°45'1 1.2
2016-Apr-29 22:33N 35°31' E 139°46'0 0.4
2016-Apr-29 21:34N 35°31' E 139°46'7 6.5
2016-Apr-29 20:34N 35°27' E 139°40'0 0.0
2016-Apr-28 08:26N 35°27' E 139°39'0 0.0
2016-Apr-28 07:33N 35°27' E 139°39'1 1.4
2016-Apr-28 06:33N 35°26' E 139°41'1 1.4
2016-Apr-28 05:33N 35°27' E 139°39'0 0.0
2016-Apr-28 04:33N 35°27' E 139°39'0 0.0
2016-Apr-28 03:33N 35°27' E 139°39'0 0.0
2016-Apr-28 02:33N 35°27' E 139°39'0 0.0
2016-Apr-28 01:33N 35°27' E 139°39'0 0.0
2016-Apr-28 00:33N 35°27' E 139°39'1 1.2
2016-Apr-27 23:33N 35°27' E 139°41'2 2.2
2016-Apr-27 22:33N 35°25' E 139°43'3 3.2
2016-Apr-27 21:33N 35°27' E 139°39'0 0.0
2016-Apr-27 08:14N 35°27' E 139°39'6 9.4
2016-Apr-27 07:33N 35°29' E 139°47'0 0.3
2016-Apr-27 06:33N 35°29' E 139°47'2 1.9
2016-Apr-27 05:33N 35°28' E 139°45'4 4.4
2016-Apr-27 04:33N 35°27' E 139°39'0 0.0
2016-Apr-27 03:33N 35°27' E 139°39'0 0.0
2016-Apr-27 02:33N 35°27' E 139°39'0 0.0
2016-Apr-27 01:33N 35°27' E 139°39'0 0.0
2016-Apr-27 00:33N 35°27' E 139°39'0 0.0
2016-Apr-26 23:33N 35°27' E 139°39'0 0.2
2016-Apr-26 22:33N 35°27' E 139°40'4 3.6
2016-Apr-26 21:33N 35°26' E 139°44'4 3.7
2016-Apr-26 20:34N 35°27' E 139°40'1 0.1
2016-Apr-26 09:34N 35°27' E 139°41'0 0.1
2016-Apr-26 08:33N 35°26' E 139°41'1 1.4
2016-Apr-26 07:33N 35°27' E 139°39'1 1.0
2016-Apr-26 06:34N 35°27' E 139°41'1 1.1
2016-Apr-26 05:34N 35°28' E 139°40'1 1.3
2016-Apr-26 04:33N 35°27' E 139°39'0 0.0
2016-Apr-26 03:33N 35°27' E 139°39'0 0.1
2016-Apr-26 02:33N 35°27' E 139°39'8 7.6
2016-Apr-26 01:33N 35°29' E 139°49'8 8.3
2016-Apr-26 00:33N 35°30' E 139°59'3 3.1
2016-Apr-25 23:33N 35°31' E 140°02'1010.2
2016-Apr-25 22:33N 35°28' E 139°50'9 9.0
2016-Apr-25 21:33N 35°27' E 139°39'0 0.0
2016-Apr-25 00:22N 35°27' E 139°39'0 0.0
2016-Apr-24 23:33N 35°27' E 139°39'0 0.0
2016-Apr-24 22:33N 35°27' E 139°39'0 0.0
2016-Apr-23 23:25N 35°27' E 139°39'6 7.4
2016-Apr-23 22:34N 35°29' E 139°47'1 0.7
2016-Apr-23 21:33N 35°29' E 139°46'1 0.6
2016-Apr-23 20:33N 35°29' E 139°45'1 0.8
2016-Apr-23 19:33N 35°29' E 139°44'2 2.3
2016-Apr-23 18:34N 35°27' E 139°45'2 2.1
2016-Apr-23 17:33N 35°29' E 139°46'0 0.0
2016-Apr-23 16:33N 35°29' E 139°46'0 0.0
2016-Apr-23 15:33N 35°29' E 139°46'2 1.7
2016-Apr-23 14:33N 35°30' E 139°44'5 4.5
2016-Apr-23 13:33N 35°27' E 139°40'1 0.7
2016-Apr-23 12:33N 35°28' E 139°41'0 0.0
2016-Apr-23 11:33N 35°28' E 139°41'0 0.0
2016-Apr-23 10:33N 35°28' E 139°41'1 1.3
2016-Apr-23 09:33N 35°27' E 139°42'2 2.1
2016-Apr-23 08:34N 35°28' E 139°44'3 2.7
2016-Apr-23 07:34N 35°27' E 139°41'1 1.3
2016-Apr-23 06:34N 35°27' E 139°39'0 0.0
2016-Apr-23 05:34N 35°27' E 139°39'0 0.0
2016-Apr-23 04:34N 35°27' E 139°39'0 0.0
2016-Apr-23 03:34N 35°27' E 139°39'0 0.0
2016-Apr-23 02:34N 35°27' E 139°39'0 0.0
2016-Apr-23 01:34N 35°27' E 139°39'3 2.5
2016-Apr-23 00:34N 35°26' E 139°42'3 2.5
2016-Apr-22 23:33N 35°27' E 139°39'0 0.0
2016-Apr-22 22:33N 35°27' E 139°39'0 0.0
2016-Apr-22 21:34N 35°27' E 139°39'0 0.0
2016-Apr-22 20:33N 35°27' E 139°39'0 0.0
2016-Apr-22 05:33N 35°27' E 139°39'0 0.0
2016-Apr-22 04:33N 35°27' E 139°39'0 0.0
2016-Apr-22 03:33N 35°27' E 139°39'0 0.0
2016-Apr-22 02:33N 35°27' E 139°39'0 0.0
2016-Apr-22 01:33N 35°27' E 139°39'0 0.0
2016-Apr-22 00:33N 35°27' E 139°39'2 2.2
2016-Apr-21 23:33N 35°28' E 139°42'2 2.5
2016-Apr-21 22:34N 35°27' E 139°44'4 3.9
2016-Apr-21 21:34N 35°27' E 139°40'0 0.0
2016-Apr-21 08:18N 35°27' E 139°39'7 9.0
2016-Apr-21 07:33N 35°31' E 139°46'0 0.3
2016-Apr-21 06:33N 35°31' E 139°46'1 1.1
2016-Apr-21 05:33N 35°30' E 139°47'7 6.8
2016-Apr-21 04:34N 35°27' E 139°39'0 0.0
2016-Apr-21 03:34N 35°27' E 139°39'0 0.0
2016-Apr-21 02:33N 35°27' E 139°39'1 1.5
2016-Apr-21 01:33N 35°27' E 139°41'4 3.9
2016-Apr-21 00:33N 35°24' E 139°38'  

Dump ship's entire track history